Terminal Aerodrome Forecast
Issued by NWS Sterling, VA

Current Version | Previous Version | Graphics & Text | Print | Product List | Glossary On
Versions: 1 2 3 4 5 6 7 8 9 10 11 12 13 14 15 16 17 18 19 20 21 22
520
FTUS41 KLWX 261445 AAA
TAFDCA
TAF AMD
KDCA 261445Z 2615/2712 30011G23KT P6SM SCT050
     FM261700 29010G17KT P6SM BKN050
     FM261900 28009KT P6SM SCT050
     FM262200 29007KT P6SM FEW250
     FM270000 VRB03KT P6SM SKC
     FM271100 00000KT P6SM BKN100=

USA.gov is the U.S. government's official web portal to all federal, state and local government web resources and services.